Aviation Digital Data Service (ADDS)

Output produced by METARs form (0400 UTC 23 September 2017)
found at http://www.aviationweather.gov/adds/metars/
 
KMKT 230356Z AUTO 18011G17KT 10SM CLR 26/20 A2985 RMK AO2 SLP102 T02610200
KRST 230354Z AUTO 18014KT 10SM CLR 25/19 A2993 RMK AO2 SLP124 T02500194
KMSP 230353Z 19016G23KT 10SM BKN160 29/21 A2984 RMK AO2 SLP099 T02940206